Time;durP1;ratioP1;P1;durP2;ratioP2;P2;SDS_P1;SDS_P2;PMS_P1;PMS_P2;Temp;Humidity;BMP_temperature;BMP_pressure;BME280_temperature;BME280_humidity;BME280_pressure;Samples;Min_cycle;Max_cycle;Signal;HPM_P1;HPM_P2
2021/11/24 00:00:25;;;;;;;8.18;6.10;;;;;;;;;;5111576;28;20206;-84
2021/11/24 00:02:52;;;;;;;10.45;7.03;;;;;;;;;;5113356;28;20672;-83
2021/11/24 00:05:20;;;;;;;7.65;5.18;;;;;;;;;;5112578;28;20655;-84
2021/11/24 00:07:47;;;;;;;11.07;6.50;;;;;;;;;;5113003;28;20194;-84
2021/11/24 00:10:16;;;;;;;8.93;6.05;;;-1.50;99.90;;;;;;5112125;28;20934;-84
2021/11/24 00:12:43;;;;;;;7.60;6.22;;;;;;;;;;5105851;28;20317;-84
2021/11/24 00:15:13;;;;;;;6.15;5.63;;;-1.50;99.90;;;;;;5111662;28;20648;-84
2021/11/24 00:17:40;;;;;;;7.18;6.22;;;;;;;;;;5096221;28;20280;-84
2021/11/24 00:20:09;;;;;;;7.68;6.53;;;-1.50;99.90;;;;;;5111708;28;20274;-83
2021/11/24 00:22:36;;;;;;;9.85;7.00;;;;;;;;;;5113063;28;20473;-85
2021/11/24 00:25:03;;;;;;;7.10;6.00;;;;;;;;;;5112332;28;20229;-85
2021/11/24 00:27:30;;;;;;;9.40;5.85;;;;;;;;;;5112871;28;20287;-84
2021/11/24 00:29:58;;;;;;;9.05;6.45;;;;;;;;;;5112752;28;20252;-85
2021/11/24 00:32:26;;;;;;;8.45;6.68;;;;;;;;;;5111564;28;20248;-84
2021/11/24 00:34:53;;;;;;;7.10;6.38;;;;;;;;;;5112150;28;20229;-84
2021/11/24 00:37:20;;;;;;;6.38;5.05;;;;;;;;;;5112687;28;20233;-84
2021/11/24 00:39:48;;;;;;;7.35;5.65;;;;;;;;;;5112657;28;20229;-84
2021/11/24 00:42:15;;;;;;;7.72;6.55;;;;;;;;;;5111953;28;20230;-84
2021/11/24 00:44:42;;;;;;;5.80;5.10;;;;;;;;;;5112731;28;20235;-84
2021/11/24 00:47:09;;;;;;;6.70;5.57;;;;;;;;;;5112315;28;20299;-84
2021/11/24 00:49:39;;;;;;;7.50;6.03;;;-1.60;99.90;;;;;;5112499;28;20226;-84
2021/11/24 00:52:07;;;;;;;6.88;5.10;;;-1.60;99.90;;;;;;5111781;28;20584;-84
2021/11/24 00:54:34;;;;;;;14.35;7.03;;;;;;;;;;5110969;28;20229;-84
2021/11/24 00:57:01;;;;;;;6.72;5.82;;;;;;;;;;5107059;28;20229;-84
2021/11/24 00:59:29;;;;;;;7.35;5.95;;;;;;;;;;5112218;28;20624;-84
2021/11/24 01:01:56;;;;;;;7.65;5.90;;;;;;;;;;5111394;28;20218;-84
2021/11/24 01:04:23;;;;;;;6.53;5.93;;;;;;;;;;5111810;28;20251;-84
2021/11/24 01:06:51;;;;;;;9.65;5.82;;;;;;;;;;5111941;28;20309;-84
2021/11/24 01:09:19;;;;;;;7.68;6.05;;;;;;;;;;5112231;28;20233;-84
2021/11/24 01:11:46;;;;;;;6.40;5.90;;;;;;;;;;5110687;28;20273;-84
2021/11/24 01:14:13;;;;;;;6.22;5.72;;;;;;;;;;5111262;28;20195;-84
2021/11/24 01:16:42;;;;;;;8.07;6.85;;;;;;;;;;5111415;28;20326;-84
2021/11/24 01:19:09;;;;;;;6.43;5.35;;;;;;;;;;5112079;28;20655;-84
2021/11/24 01:21:36;;;;;;;9.50;7.15;;;;;;;;;;5109375;28;20259;-84
2021/11/24 01:24:05;;;;;;;6.85;5.75;;;-2.00;99.90;;;;;;5107251;28;20289;-84
2021/11/24 01:26:32;;;;;;;6.88;6.18;;;;;;;;;;5099985;28;20964;-84
2021/11/24 01:28:59;;;;;;;5.90;5.38;;;;;;;;;;5111613;28;20226;-84
2021/11/24 01:31:27;;;;;;;18.23;7.70;;;;;;;;;;5111023;28;20190;-84
2021/11/24 01:33:54;;;;;;;6.68;6.00;;;;;;;;;;5111671;28;20267;-84
2021/11/24 01:36:21;;;;;;;7.85;6.60;;;;;;;;;;5111116;28;20281;-84
2021/11/24 01:38:48;;;;;;;8.18;6.68;;;;;;;;;;5111131;28;20221;-84
2021/11/24 01:41:17;;;;;;;6.95;5.88;;;;;;;;;;5109979;28;20218;-84
2021/11/24 01:43:44;;;;;;;12.35;5.80;;;;;;;;;;5111652;28;20198;-84
2021/11/24 01:46:11;;;;;;;6.65;5.95;;;;;;;;;;5110657;28;20309;-84
2021/11/24 01:48:38;;;;;;;6.10;5.50;;;;;;;;;;5111094;28;20229;-84
2021/11/24 01:51:06;;;;;;;6.95;6.05;;;;;;;;;;5104804;28;20251;-84
2021/11/24 01:53:33;;;;;;;7.55;6.00;;;;;;;;;;5111042;28;20194;-84
2021/11/24 01:56:01;;;;;;;7.68;5.43;;;-1.90;99.90;;;;;;5110068;28;20222;-84
2021/11/24 01:58:30;;;;;;;8.98;7.07;;;-2.00;99.90;;;;;;5111194;28;20213;-84
2021/11/24 02:00:57;;;;;;;10.52;5.85;;;;;;;;;;5110022;28;20186;-83
2021/11/24 02:03:26;;;;;;;9.02;7.55;;;;;;;;;;5110793;28;20248;-83
2021/11/24 02:05:53;;;;;;;6.85;5.95;;;;;;;;;;5110910;28;20290;-84
2021/11/24 02:08:20;;;;;;;7.93;6.10;;;;;;;;;;5110402;28;20289;-84
2021/11/24 02:10:48;;;;;;;8.38;6.38;;;;;;;;;;5103037;28;20964;-84
2021/11/24 02:13:15;;;;;;;8.23;5.35;;;;;;;;;;5111128;28;20237;-84
2021/11/24 02:15:43;;;;;;;8.73;6.30;;;;;;;;;;5109207;28;20205;-83
2021/11/24 02:18:11;;;;;;;5.90;5.32;;;;;;;;;;5111112;28;20270;-85
2021/11/24 02:20:43;;;;;;;11.07;5.93;;;-2.10;99.90;;;;;;5109271;28;20233;-84
2021/11/24 02:23:12;;;;;;;6.80;5.47;;;-2.20;99.90;;;;;;5110959;28;20491;-84
2021/11/24 02:25:41;;;;;;;6.40;5.75;;;-2.10;99.90;;;;;;5110589;28;20627;-84
2021/11/24 02:28:08;;;;;;;11.52;7.18;;;;;;;;;;5110630;28;20287;-84
2021/11/24 02:30:36;;;;;;;9.45;7.07;;;-2.10;99.90;;;;;;5110052;28;20234;-84
2021/11/24 02:33:03;;;;;;;10.73;7.45;;;-2.00;99.90;;;;;;5110059;28;20198;-84
2021/11/24 02:35:31;;;;;;;6.18;4.75;;;;;;;;;;5109508;28;20731;-84
2021/11/24 02:38:02;;;;;;;10.57;6.60;;;-2.10;99.90;;;;;;5110532;28;20219;-84
2021/11/24 02:40:29;;;;;;;11.02;6.68;;;;;;;;;;5109258;28;20233;-84
2021/11/24 02:42:57;;;;;;;10.25;6.97;;;;;;;;;;5109819;28;20222;-84
2021/11/24 02:45:24;;;;;;;8.18;6.47;;;;;;;;;;5122093;27;20220;-84
2021/11/24 02:47:51;;;;;;;7.35;6.15;;;;;;;;;;5120550;27;20309;-83
2021/11/24 02:50:18;;;;;;;8.15;6.28;;;;;;;;;;5109466;28;20675;-84
2021/11/24 02:52:45;;;;;;;7.70;5.90;;;;;;;;;;5110066;28;20237;-84
2021/11/24 02:55:15;;;;;;;8.95;6.43;;;-2.10;99.90;;;;;;5109121;28;20277;-84
2021/11/24 02:57:44;;;;;;;7.78;5.95;;;-2.10;99.90;;;;;;5110036;28;20571;-84
2021/11/24 03:00:15;;;;;;;7.50;5.30;;;-2.10;99.90;;;;;;5109716;28;20650;-84
2021/11/24 03:02:43;;;;;;;7.68;5.90;;;-2.10;99.90;;;;;;5109630;28;20190;-84
2021/11/24 03:05:10;;;;;;;6.15;5.55;;;;;;;;;;5092414;28;20310;-84
2021/11/24 03:07:38;;;;;;;7.13;5.50;;;;;;;;;;5110005;28;20313;-84
2021/11/24 03:10:05;;;;;;;7.72;5.60;;;;;;;;;;5109423;28;20301;-82
2021/11/24 03:12:34;;;;;;;6.43;5.78;;;-2.10;99.60;;;;;;5110463;28;20616;-83
2021/11/24 03:15:02;;;;;;;9.30;5.97;;;;;;;;;;5109293;28;20236;-84
2021/11/24 03:17:29;;;;;;;9.52;5.72;;;;;;;;;;5110322;28;20603;-84
2021/11/24 03:19:57;;;;;;;9.73;6.55;;;;;;;;;;5109549;28;20331;-83
2021/11/24 03:22:24;;;;;;;8.02;6.95;;;;;;;;;;5109867;28;20570;-83
2021/11/24 03:24:55;;;;;;;6.40;5.63;;;-2.20;99.90;;;;;;5109601;28;20277;-84
2021/11/24 03:27:24;;;;;;;11.30;5.95;;;-2.20;99.90;;;;;;5110310;28;20698;-84
2021/11/24 03:29:52;;;;;;;8.05;6.35;;;-2.10;99.90;;;;;;5113233;28;20569;-84
2021/11/24 03:32:19;;;;;;;8.45;7.32;;;;;;;;;;5113370;28;20281;-84
2021/11/24 03:34:46;;;;;;;12.75;5.55;;;;;;;;;;5113481;28;20229;-83
2021/11/24 03:37:14;;;;;;;7.72;6.25;;;;;;;;;;5113868;28;20285;-84
2021/11/24 03:39:41;;;;;;;8.60;6.00;;;-2.20;99.90;;;;;;5113827;28;20225;-83
2021/11/24 03:42:08;;;;;;;8.35;7.15;;;;;;;;;;5112574;28;20638;-84
2021/11/24 03:44:35;;;;;;;7.00;6.20;;;;;;;;;;5113641;28;20226;-83
2021/11/24 03:47:04;;;;;;;6.95;6.15;;;-2.40;99.90;;;;;;5113585;28;20249;-83
2021/11/24 03:49:31;;;;;;;7.88;7.07;;;;;;;;;;5113744;28;20187;-84
2021/11/24 03:51:58;;;;;;;6.82;5.50;;;;;;;;;;5112910;28;20194;-84
2021/11/24 03:54:26;;;;;;;8.38;7.20;;;;;;;;;;5113071;28;20233;-83
2021/11/24 03:56:53;;;;;;;9.18;5.93;;;;;;;;;;5112587;28;20234;-83
2021/11/24 03:59:20;;;;;;;7.68;6.88;;;;;;;;;;5113983;28;20589;-83
2021/11/24 04:01:47;;;;;;;7.78;6.95;;;;;;;;;;5112522;28;20217;-84
2021/11/24 04:04:15;;;;;;;8.15;6.80;;;-2.20;99.90;;;;;;5113326;28;20226;-84
2021/11/24 04:06:43;;;;;;;6.25;5.65;;;;;;;;;;5106873;28;20265;-84
2021/11/24 04:09:10;;;;;;;11.23;7.88;;;;;;;;;;5113267;28;20244;-83
2021/11/24 04:11:37;;;;;;;7.40;6.70;;;;;;;;;;5112556;28;20233;-83
2021/11/24 04:14:05;;;;;;;7.57;6.55;;;;;;;;;;5114053;28;20241;-84
2021/11/24 04:16:32;;;;;;;17.92;6.40;;;;;;;;;;5112371;28;20202;-83
2021/11/24 04:19:01;;;;;;;10.50;7.38;;;;;;;;;;5113509;28;20344;-83
2021/11/24 04:21:31;;;;;;;8.30;6.90;;;-2.40;99.90;;;;;;5112428;28;20273;-84
2021/11/24 04:23:58;;;;;;;8.07;7.13;;;-2.40;99.90;;;;;;5112738;28;20222;-83
2021/11/24 04:26:25;;;;;;;8.52;7.65;;;;;;;;;;5112768;28;20252;-84
2021/11/24 04:28:52;;;;;;;8.88;6.70;;;;;;;;;;5112848;28;20269;-84
2021/11/24 04:31:19;;;;;;;9.13;6.95;;;;;;;;;;5112388;28;20218;-84
2021/11/24 04:33:47;;;;;;;9.27;5.80;;;;;;;;;;5111956;28;20222;-83
2021/11/24 04:36:14;;;;;;;8.13;6.50;;;;;;;;;;5112224;28;20640;-83
2021/11/24 04:38:43;;;;;;;8.50;6.15;;;-2.40;99.90;;;;;;5112032;28;20194;-84
2021/11/24 04:41:10;;;;;;;9.15;6.35;;;;;;;;;;5112337;28;20664;-84
2021/11/24 04:43:40;;;;;;;24.70;6.55;;;;;;;;;;5112535;28;20218;-83
2021/11/24 04:46:07;;;;;;;8.93;5.88;;;;;;;;;;5113424;28;20656;-83
2021/11/24 04:48:37;;;;;;;7.55;6.22;;;;;;;;;;5111793;28;20326;-83
2021/11/24 04:51:04;;;;;;;9.35;6.50;;;;;;;;;;5111593;28;20652;-83
2021/11/24 04:53:31;;;;;;;9.23;6.40;;;;;;;;;;5112165;28;20247;-83
2021/11/24 04:56:00;;;;;;;8.15;7.20;;;-2.40;99.90;;;;;;5112597;28;20222;-83
2021/11/24 04:58:27;;;;;;;9.07;6.63;;;;;;;;;;5112081;28;20220;-84
2021/11/24 05:00:54;;;;;;;7.78;6.85;;;;;;;;;;5111395;28;20190;-83
2021/11/24 05:03:21;;;;;;;7.85;5.70;;;;;;;;;;5111826;28;20478;-83
2021/11/24 05:05:48;;;;;;;8.40;6.00;;;;;;;;;;5111633;28;20222;-83
2021/11/24 05:08:16;;;;;;;7.75;6.35;;;;;;;;;;5111592;28;20586;-83
2021/11/24 05:10:43;;;;;;;10.15;6.35;;;;;;;;;;5104794;28;20237;-82
2021/11/24 05:13:11;;;;;;;7.60;5.60;;;;;;;;;;5112241;28;20720;-83
2021/11/24 05:15:42;;;;;;;7.38;6.55;;;;;;;;;;5110567;28;20209;-83
2021/11/24 05:18:14;;;;;;;11.40;7.55;;;;;;;;;;5111288;28;20198;-84
2021/11/24 05:20:43;;;;;;;10.07;6.95;;;;;;;;;;5109974;28;20198;-83
2021/11/24 05:23:14;;;;;;;10.07;7.40;;;;;;;;;;5111911;28;20289;-83
2021/11/24 05:25:41;;;;;;;9.00;7.82;;;;;;;;;;5111460;28;20305;-83
2021/11/24 05:28:08;;;;;;;8.30;6.53;;;;;;;;;;5105697;28;20321;-84
2021/11/24 05:30:37;;;;;;;9.52;6.90;;;;;;;;;;5110258;28;20285;-84
2021/11/24 05:33:04;;;;;;;9.40;8.18;;;;;;;;;;5111493;28;20218;-83
2021/11/24 05:35:31;;;;;;;9.25;8.20;;;;;;;;;;5110722;28;20574;-83
2021/11/24 05:37:59;;;;;;;8.32;7.53;;;;;;;;;;5111619;28;20508;-83
2021/11/24 05:40:26;;;;;;;11.57;8.43;;;;;;;;;;5110640;28;20199;-83
2021/11/24 05:42:54;;;;;;;13.60;9.07;;;;;;;;;;5110701;28;20202;-83
2021/11/24 05:45:36;;;;;;;11.88;8.55;;;-2.60;99.90;;;;;;5110663;28;20226;-83
2021/11/24 05:48:08;;;;;;;9.52;7.90;;;-2.60;99.90;;;;;;5111151;28;20310;-84
2021/11/24 05:50:36;;;;;;;11.23;8.52;;;-2.60;99.90;;;;;;5110331;28;20210;-83
2021/11/24 05:53:03;;;;;;;9.73;8.32;;;;;;;;;;5110989;28;20194;-83
2021/11/24 05:55:31;;;;;;;12.35;8.23;;;;;;;;;;5109548;28;20225;-84
2021/11/24 05:57:58;;;;;;;8.00;7.20;;;;;;;;;;5111307;28;20213;-83
2021/11/24 06:00:25;;;;;;;9.98;8.57;;;;;;;;;;5110194;28;20255;-83
2021/11/24 06:02:53;;;;;;;13.30;8.23;;;;;;;;;;5111046;28;20194;-83
2021/11/24 06:05:21;;;;;;;10.35;7.80;;;-2.60;99.90;;;;;;5110723;28;20601;-83
2021/11/24 06:07:48;;;;;;;9.45;7.63;;;;;;;;;;5104471;28;20253;-83
2021/11/24 06:10:15;;;;;;;8.88;8.00;;;;;;;;;;5109854;28;20202;-83
2021/11/24 06:12:42;;;;;;;15.50;11.35;;;-2.60;99.90;;;;;;5109500;28;20736;-83
2021/11/24 06:15:14;;;;;;;10.15;9.07;;;-2.80;99.90;;;;;;5110084;28;20190;-83
2021/11/24 06:17:41;;;;;;;10.50;9.40;;;;;;;;;;5110482;28;20866;-84
2021/11/24 06:20:09;;;;;;;16.20;9.40;;;;;;;;;;5110594;28;20596;-82
2021/11/24 06:22:37;;;;;;;11.45;9.07;;;;;;;;;;5109381;28;20271;-83
2021/11/24 06:25:05;;;;;;;10.85;9.75;;;;;;;;;;5110693;28;20241;-83
2021/11/24 06:27:32;;;;;;;9.60;8.40;;;;;;;;;;5110382;28;20868;-83
2021/11/24 06:29:59;;;;;;;11.10;9.18;;;;;;;;;;5110774;28;20709;-83
2021/11/24 06:32:26;;;;;;;18.10;13.38;;;;;;;;;;5107931;28;21140;-83
2021/11/24 06:34:54;;;;;;;13.43;11.50;;;;;;;;;;5110240;27;20266;-84
2021/11/24 06:37:21;;;;;;;15.25;12.45;;;;;;;;;;5119561;27;20791;-84
2021/11/24 06:39:49;;;;;;;14.07;10.85;;;;;;;;;;5117769;27;20222;-83
2021/11/24 06:42:16;;;;;;;13.48;10.43;;;;;;;;;;5106143;27;20226;-83
2021/11/24 06:44:44;;;;;;;14.52;8.63;;;;;;;;;;5113559;27;20222;-83
2021/11/24 06:47:13;;;;;;;11.15;8.00;;;;;;;;;;5096198;28;20229;-83
2021/11/24 06:49:40;;;;;;;7.97;7.03;;;;;;;;;;5109493;28;20271;-83
2021/11/24 06:52:07;;;;;;;12.68;8.18;;;-3.00;99.90;;;;;;5109841;28;20218;-84
2021/11/24 06:54:34;;;;;;;9.30;8.32;;;;;;;;;;5107184;28;20545;-84
2021/11/24 06:57:03;;;;;;;11.68;8.48;;;-2.80;99.90;;;;;;5118765;28;20190;-84
2021/11/24 06:59:30;;;;;;;13.73;9.52;;;;;;;;;;5119271;28;20198;-83
2021/11/24 07:01:58;;;;;;;13.73;10.05;;;;;;;;;;5120695;27;20222;-84
2021/11/24 07:04:25;;;;;;;13.23;8.50;;;;;;;;;;5119742;27;20499;-84
2021/11/24 07:06:52;;;;;;;14.32;8.40;;;;;;;;;;5117320;28;20270;-84
2021/11/24 07:09:19;;;;;;;10.25;8.52;;;;;;;;;;5117293;28;20279;-83
2021/11/24 07:11:46;;;;;;;11.60;9.07;;;;;;;;;;5117102;27;20260;-84
2021/11/24 07:14:15;;;;;;;12.73;8.80;;;;;;;;;;5133688;27;20226;-84
2021/11/24 07:16:42;;;;;;;8.50;7.60;;;;;;;;;;5116763;28;20198;-83
2021/11/24 07:19:09;;;;;;;12.75;9.65;;;;;;;;;;5117054;28;20262;-84
2021/11/24 07:21:37;;;;;;;14.13;10.73;;;;;;;;;;5117338;28;20285;-84
2021/11/24 07:24:05;;;;;;;13.43;8.30;;;;;;;;;;5116984;28;20255;-84
2021/11/24 07:26:32;;;;;;;15.95;9.23;;;;;;;;;;5116322;28;20202;-85
2021/11/24 07:28:59;;;;;;;11.05;9.77;;;;;;;;;;5117016;28;20308;-84
2021/11/24 07:31:27;;;;;;;10.45;9.18;;;-2.70;99.90;;;;;;5115728;28;20690;-83
2021/11/24 07:33:55;;;;;;;11.75;10.18;;;;;;;;;;5117327;28;20229;-84
2021/11/24 07:36:22;;;;;;;16.52;9.00;;;;;;;;;;5116785;28;20251;-84
2021/11/24 07:38:49;;;;;;;11.75;9.20;;;;;;;;;;5114868;27;20274;-84
2021/11/24 07:41:16;;;;;;;14.40;12.38;;;;;;;;;;5109227;27;20223;-84
2021/11/24 07:43:43;;;;;;;16.85;10.57;;;;;;;;;;5115877;28;20229;-84
2021/11/24 07:46:12;;;;;;;13.95;11.75;;;;;;;;;;5123041;27;20584;-84
2021/11/24 07:48:43;;;;;;;16.10;9.70;;;;;;;;;;5100440;27;20221;-84
2021/11/24 07:51:17;;;;;;;16.52;11.93;;;;;;;;;;5116581;27;20202;-85
2021/11/24 07:53:44;;;;;;;16.77;10.70;;;;;;;;;;5116909;27;20199;-84
2021/11/24 07:56:11;;;;;;;14.23;8.73;;;;;;;;;;5115575;28;20227;-84
2021/11/24 07:58:40;;;;;;;27.20;11.80;;;;;;;;;;5133382;27;20257;-84
2021/11/24 08:01:08;;;;;;;16.83;9.25;;;;;;;;;;5115831;28;20203;-85
2021/11/24 08:03:35;;;;;;;19.95;13.27;;;;;;;;;;5116160;28;20259;-85
2021/11/24 08:06:04;;;;;;;12.43;10.50;;;-1.90;99.90;;;;;;5114839;28;20615;-87
2021/11/24 08:08:32;;;;;;;15.77;10.60;;;;;;;;;;5115290;28;20263;-87
2021/11/24 08:10:59;;;;;;;15.70;11.80;;;;;;;;;;5113481;28;20234;-86
2021/11/24 08:13:27;;;;;;;17.63;13.48;;;;;;;;;;5110126;28;20237;-87
2021/11/24 08:15:54;;;;;;;18.85;12.15;;;;;;;;;;5110333;28;20231;-85
2021/11/24 08:18:23;;;;;;;17.58;12.10;;;;;;;;;;5112294;28;20201;-86
2021/11/24 08:20:51;;;;;;;19.23;13.35;;;;;;;;;;5112835;28;20205;-86
2021/11/24 08:23:21;;;;;;;12.27;10.48;;;;;;;;;;5105063;28;20222;-85
2021/11/24 08:25:48;;;;;;;17.85;12.63;;;;;;;;;;5113501;28;20598;-86
2021/11/24 08:28:16;;;;;;;15.93;11.45;;;;;;;;;;5113452;28;20221;-86
2021/11/24 08:30:43;;;;;;;20.00;11.82;;;;;;;;;;5099920;28;20239;-85
2021/11/24 08:33:10;;;;;;;17.30;12.73;;;;;;;;;;5112870;28;20660;-86
2021/11/24 08:35:38;;;;;;;31.95;13.15;;;;;;;;;;5112901;28;20222;-86
2021/11/24 08:38:05;;;;;;;17.55;11.93;;;;;;;;;;5111801;28;20213;-86
2021/11/24 08:40:33;;;;;;;18.65;12.13;;;-1.10;99.90;;;;;;5111840;28;20652;-86
2021/11/24 08:43:00;;;;;;;19.88;13.35;;;;;;;;;;5105706;28;20209;-86
2021/11/24 08:45:28;;;;;;;19.98;13.45;;;;;;;;;;5112587;28;20314;-85
2021/11/24 08:47:55;;;;;;;16.25;12.15;;;;;;;;;;5113156;28;20225;-85
2021/11/24 08:50:23;;;;;;;17.13;12.85;;;-1.00;99.90;;;;;;5111232;28;20594;-85
2021/11/24 08:52:50;;;;;;;17.42;12.77;;;;;;;;;;5107120;28;20253;-85
2021/11/24 08:55:19;;;;;;;20.25;13.85;;;-0.70;99.90;;;;;;5112537;28;20190;-85
2021/11/24 08:57:47;;;;;;;23.75;13.20;;;;;;;;;;5112669;28;20724;-85
2021/11/24 09:00:17;;;;;;;19.70;15.13;;;-0.60;99.90;;;;;;5111246;28;20200;-85
2021/11/24 09:02:45;;;;;;;18.80;13.88;;;;;;;;;;5111701;28;20194;-85
2021/11/24 09:05:13;;;;;;;22.02;15.18;;;-0.40;99.90;;;;;;5115018;28;20198;-85
2021/11/24 09:07:41;;;;;;;29.80;16.90;;;-0.30;99.90;;;;;;5116005;28;20659;-85
2021/11/24 09:10:09;;;;;;;17.77;13.27;;;0.10;99.90;;;;;;5112269;28;20836;-84
2021/11/24 09:12:36;;;;;;;23.40;13.43;;;;;;;;;;5112119;28;20206;-85
2021/11/24 09:15:05;;;;;;;18.92;12.82;;;0.50;99.90;;;;;;5110728;28;20243;-85
2021/11/24 09:17:33;;;;;;;22.67;15.07;;;;;;;;;;5111568;28;20206;-84
2021/11/24 09:20:00;;;;;;;20.55;14.40;;;;;;;;;;5111249;28;20226;-84
2021/11/24 09:22:27;;;;;;;25.67;14.02;;;;;;;;;;5112092;28;20259;-85
2021/11/24 09:24:57;;;;;;;30.92;15.93;;;;;;;;;;5111068;28;20239;-86
2021/11/24 09:27:30;;;;;;;27.73;15.55;;;;;;;;;;5102704;28;20202;-85
2021/11/24 09:29:58;;;;;;;22.55;14.88;;;;;;;;;;5108600;28;20210;-84
2021/11/24 09:32:27;;;;;;;21.45;15.45;;;1.30;99.90;;;;;;5111504;28;20221;-83
2021/11/24 09:34:55;;;;;;;21.27;14.15;;;;;;;;;;5111778;28;20538;-84
2021/11/24 09:37:22;;;;;;;24.83;13.73;;;;;;;;;;5110421;28;20190;-84
2021/11/24 09:39:49;;;;;;;24.20;14.18;;;;;;;;;;5111105;28;20211;-84
2021/11/24 09:42:17;;;;;;;21.83;14.30;;;1.50;99.90;;;;;;5111157;28;20194;-83
2021/11/24 09:44:47;;;;;;;22.27;13.25;;;1.50;99.90;;;;;;5111122;28;20198;-84
2021/11/24 09:47:14;;;;;;;21.70;13.55;;;;;;;;;;5111602;28;20205;-83
2021/11/24 09:49:45;;;;;;;22.00;13.57;;;1.70;99.90;;;;;;5110828;28;20279;-83
2021/11/24 09:52:14;;;;;;;22.88;14.15;;;1.70;99.90;;;;;;5110474;28;20732;-84
2021/11/24 09:54:42;;;;;;;22.00;14.98;;;2.30;99.90;;;;;;5110158;28;20225;-84
2021/11/24 09:57:09;;;;;;;18.45;13.80;;;1.80;99.90;;;;;;5110849;28;20566;-83
2021/11/24 09:59:36;;;;;;;19.10;13.40;;;0.80;99.90;;;;;;5110446;28;20648;-84
2021/11/24 10:02:05;;;;;;;22.17;14.35;;;1.90;99.90;;;;;;5110790;28;20233;-84
2021/11/24 10:04:32;;;;;;;18.42;13.35;;;2.60;99.90;;;;;;5111171;28;20877;-83
2021/11/24 10:07:01;;;;;;;18.67;12.52;;;2.10;99.90;;;;;;5110029;28;20614;-83
2021/11/24 10:09:28;;;;;;;17.80;13.10;;;;;;;;;;5110025;28;20224;-83
2021/11/24 10:11:55;;;;;;;17.67;12.90;;;;;;;;;;5109828;28;20653;-83
2021/11/24 10:14:23;;;;;;;18.88;13.57;;;;;;;;;;5110285;28;20191;-83
2021/11/24 10:16:50;;;;;;;22.73;14.10;;;2.30;99.90;;;;;;5109250;28;20674;-83
2021/11/24 10:19:17;;;;;;;17.15;12.65;;;;;;;;;;5110509;28;20692;-83
2021/11/24 10:21:56;;;;;;;19.10;11.65;;;2.30;99.90;;;;;;5109627;28;20192;-83
2021/11/24 10:24:34;;;;;;;18.50;11.85;;;2.30;99.90;;;;;;5109129;28;20192;-83
2021/11/24 10:27:02;;;;;;;22.13;14.30;;;2.10;99.90;;;;;;5110194;28;20200;-83
2021/11/24 10:29:30;;;;;;;19.25;12.88;;;2.40;99.90;;;;;;5109734;28;20246;-82
2021/11/24 10:31:59;;;;;;;15.93;11.45;;;2.40;99.70;;;;;;5109355;28;20191;-83
2021/11/24 10:34:27;;;;;;;23.73;13.95;;;2.50;99.70;;;;;;5109846;28;20200;-83
2021/11/24 10:37:00;;;;;;;24.65;12.50;;;2.40;99.90;;;;;;5103126;28;20226;-83
2021/11/24 10:39:29;;;;;;;16.75;11.90;;;2.40;99.90;;;;;;5109569;28;20210;-82
2021/11/24 10:42:09;;;;;;;14.85;11.85;;;2.40;99.00;;;;;;5109675;28;20199;-83
2021/11/24 10:44:38;;;;;;;18.08;10.75;;;2.40;99.90;;;;;;5110038;28;20198;-82
2021/11/24 10:47:07;;;;;;;15.07;11.30;;;2.40;99.90;;;;;;5103943;28;20291;-83
2021/11/24 10:49:39;;;;;;;20.58;11.43;;;2.60;99.90;;;;;;5109896;28;20225;-83
2021/11/24 10:52:15;;;;;;;13.52;11.07;;;2.60;98.50;;;;;;5108939;28;20206;-83
2021/11/24 10:54:42;;;;;;;17.33;11.55;;;;;;;;;;5109750;28;20192;-83
2021/11/24 10:57:12;;;;;;;17.23;12.00;;;2.70;99.90;;;;;;5110334;28;20230;-82
2021/11/24 10:59:41;;;;;;;21.17;12.65;;;2.50;98.40;;;;;;5109176;28;20199;-83
2021/11/24 11:02:20;;;;;;;18.90;13.02;;;2.10;99.90;;;;;;5109524;28;20318;-83
2021/11/24 11:05:03;;;;;;;16.38;12.27;;;2.70;98.40;;;;;;5098856;28;20256;-83
2021/11/24 11:07:31;;;;;;;22.48;14.00;;;2.80;98.00;;;;;;5108830;28;20203;-83
2021/11/24 11:10:06;;;;;;;20.92;12.18;;;2.80;97.70;;;;;;5109006;28;20211;-83
2021/11/24 11:12:36;;;;;;;19.25;11.30;;;2.80;98.00;;;;;;5108639;28;20234;-83
2021/11/24 11:15:19;;;;;;;16.60;12.05;;;2.90;97.80;;;;;;5113605;28;20201;-83
2021/11/24 11:17:55;;;;;;;19.40;12.52;;;3.00;98.40;;;;;;5109534;28;20254;-83
2021/11/24 11:20:23;;;;;;;22.25;13.98;;;;;;;;;;5108216;28;20230;-83
2021/11/24 11:22:54;;;;;;;19.15;12.60;;;3.20;99.90;;;;;;5110527;28;20532;-84
2021/11/24 11:25:21;;;;;;;20.00;14.82;;;3.20;99.90;;;;;;5109778;28;20256;-83
2021/11/24 11:27:51;;;;;;;16.05;11.75;;;3.10;96.60;;;;;;5109836;28;20242;-84
2021/11/24 11:30:18;;;;;;;19.13;12.10;;;;;;;;;;5108861;28;20574;-83
2021/11/24 11:32:47;;;;;;;15.40;10.57;;;3.00;96.00;;;;;;5109089;28;20245;-83
2021/11/24 11:35:15;;;;;;;16.33;11.23;;;3.10;97.50;;;;;;5108237;28;20223;-83
2021/11/24 11:37:42;;;;;;;19.58;11.80;;;3.00;96.20;;;;;;5109897;28;20249;-84
2021/11/24 11:40:11;;;;;;;18.65;11.15;;;3.00;96.30;;;;;;5108638;28;20299;-83
2021/11/24 11:42:38;;;;;;;20.38;12.32;;;2.70;99.90;;;;;;5101798;28;20227;-84
2021/11/24 11:45:09;;;;;;;19.50;12.25;;;2.90;96.20;;;;;;5108943;28;20235;-83
2021/11/24 11:47:48;;;;;;;19.88;11.15;;;2.90;96.50;;;;;;5109043;28;20272;-83
2021/11/24 11:50:31;;;;;;;18.15;12.73;;;2.90;96.10;;;;;;5111231;28;20231;-82
2021/11/24 11:53:09;;;;;;;18.15;10.88;;;2.80;99.90;;;;;;5113358;28;20228;-84
2021/11/24 11:55:37;;;;;;;16.05;9.73;;;;;;;;;;5112650;28;20188;-84
2021/11/24 11:58:22;;;;;;;14.45;10.30;;;2.80;96.10;;;;;;5101536;28;20212;-82
2021/11/24 12:04:07;;;;;;;23.80;9.90;;;2.70;94.90;;;;;;5106490;27;20733;-82
2021/11/24 12:06:38;;;;;;;17.83;11.05;;;2.80;94.90;;;;;;5097116;28;20203;-82
2021/11/24 12:09:14;;;;;;;14.55;9.85;;;2.70;94.80;;;;;;5107689;28;20649;-82
2021/11/24 12:12:10;;;;;;;15.30;9.82;;;3.00;99.90;;;;;;5086928;28;20225;-82
2021/11/24 12:14:53;;;;;;;16.83;10.63;;;2.70;94.70;;;;;;5102781;28;20187;-82
2021/11/24 12:17:40;;;;;;;14.88;9.00;;;2.70;99.90;;;;;;5105231;28;20196;-82
2021/11/24 12:20:39;;;;;;;15.43;8.55;;;2.80;97.70;;;;;;5097054;28;20660;-82
2021/11/24 12:23:13;;;;;;;11.40;8.23;;;2.80;94.20;;;;;;5097455;28;20649;-82
2021/11/24 12:25:43;;;;;;;15.25;10.20;;;2.80;94.30;;;;;;5088433;28;20197;-82
2021/11/24 12:28:12;;;;;;;14.95;9.77;;;;;;;;;;5093389;28;20521;-83
2021/11/24 12:31:16;;;;;;;14.52;9.23;;;2.90;94.00;;;;;;5103748;28;20191;-82
2021/11/24 12:33:52;;;;;;;14.95;9.50;;;2.90;94.40;;;;;;5106531;28;20218;-82
2021/11/24 12:36:23;;;;;;;14.32;10.00;;;2.90;96.10;;;;;;5096070;28;20271;-82
2021/11/24 12:38:53;;;;;;;14.25;9.82;;;2.80;95.20;;;;;;5087225;28;20232;-83
2021/11/24 12:41:23;;;;;;;15.52;8.45;;;3.00;95.30;;;;;;5097476;28;20571;-83
2021/11/24 12:43:52;;;;;;;16.80;9.30;;;3.10;96.80;;;;;;5100471;28;20521;-82
2021/11/24 12:46:21;;;;;;;11.45;8.45;;;2.90;95.80;;;;;;5105403;28;20188;-83
2021/11/24 12:48:51;;;;;;;15.02;9.65;;;5.10;96.90;;;;;;5106488;28;20200;-83
2021/11/24 12:51:22;;;;;;;16.08;9.73;;;;;;;;;;5104189;28;20199;-82
2021/11/24 12:53:53;;;;;;;16.85;11.30;;;3.10;96.60;;;;;;5106096;28;21257;-82
2021/11/24 12:56:23;;;;;;;15.00;9.50;;;3.10;97.30;;;;;;5105696;28;20196;-82
2021/11/24 12:58:50;;;;;;;12.95;10.48;;;;;;;;;;5103964;28;20207;-82
2021/11/24 13:01:26;;;;;;;13.63;9.93;;;3.20;97.50;;;;;;5097458;28;20248;-82
2021/11/24 13:04:02;;;;;;;14.45;10.75;;;3.10;97.50;;;;;;5105964;28;20270;-82
2021/11/24 13:06:29;;;;;;;25.20;12.32;;;3.10;97.10;;;;;;5092075;28;20196;-82
2021/11/24 13:09:13;;;;;;;18.38;11.07;;;3.10;98.00;;;;;;5105316;28;20741;-82
2021/11/24 13:11:49;;;;;;;16.33;10.57;;;3.10;95.70;;;;;;5093561;28;20253;-82
2021/11/24 13:14:18;;;;;;;18.85;11.57;;;3.80;98.10;;;;;;5077683;28;20212;-82
2021/11/24 13:16:45;;;;;;;17.90;9.98;;;;;;;;;;5080286;28;20217;-82
2021/11/24 13:19:13;;;;;;;17.13;9.35;;;;;;;;;;5092130;28;20195;-81
2021/11/24 13:21:49;;;;;;;18.85;12.07;;;;;;;;;;5079418;28;20269;-81
2021/11/24 13:24:18;;;;;;;17.30;10.32;;;;;;;;;;5092106;28;20241;-81
2021/11/24 13:26:55;;;;;;;17.25;12.45;;;3.10;95.20;;;;;;5076469;28;20277;-82
2021/11/24 13:29:24;;;;;;;16.80;10.32;;;;;;;;;;5075850;28;20193;-82
2021/11/24 13:31:52;;;;;;;21.70;11.80;;;3.00;97.50;;;;;;5082363;28;20246;-81
2021/11/24 13:34:26;;;;;;;14.43;9.82;;;;;;;;;;5089512;28;20198;-82
2021/11/24 13:36:53;;;;;;;13.63;10.48;;;;;;;;;;5091994;28;20195;-82
2021/11/24 13:39:26;;;;;;;14.65;10.25;;;;;;;;;;5092797;28;20569;-81
2021/11/24 13:41:53;;;;;;;16.52;10.52;;;;;;;;;;5082564;28;20195;-82
2021/11/24 13:44:21;;;;;;;15.25;10.23;;;;;;;;;;5091505;28;20232;-81
2021/11/24 13:46:49;;;;;;;17.23;10.90;;;;;;;;;;5070227;28;20248;-82
2021/11/24 13:49:22;;;;;;;14.30;9.98;;;3.20;98.90;;;;;;5091767;28;20227;-81
2021/11/24 13:51:50;;;;;;;14.50;10.60;;;3.30;99.90;;;;;;5075360;28;20208;-81
2021/11/24 13:54:19;;;;;;;17.40;10.93;;;3.20;98.90;;;;;;5091613;28;20200;-81
2021/11/24 13:56:49;;;;;;;13.23;9.02;;;3.10;99.20;;;;;;5089965;28;20604;-82
2021/11/24 13:59:23;;;;;;;17.48;12.85;;;3.10;98.70;;;;;;5091511;28;20733;-82